sensor_id;sensor_type;location;lat;lon;timestamp;pressure;altitude;pressure_sealevel;temperature;humidity
6030;BME280;3043;42.682;23.376;2023-04-21T00:00:47;94501.81;;;10.35;100.00
6030;BME280;3043;42.682;23.376;2023-04-21T00:03:12;94496.94;;;10.26;100.00
6030;BME280;3043;42.682;23.376;2023-04-21T00:05:38;94487.59;;;10.22;100.00
6030;BME280;3043;42.682;23.376;2023-04-21T00:08:07;94489.13;;;10.27;100.00
6030;BME280;3043;42.682;23.376;2023-04-21T00:10:32;94491.75;;;10.26;100.00
6030;BME280;3043;42.682;23.376;2023-04-21T00:12:58;94489.06;;;10.29;100.00
6030;BME280;3043;42.682;23.376;2023-04-21T00:15:23;94489.94;;;10.29;100.00
6030;BME280;3043;42.682;23.376;2023-04-21T00:17:49;94490.06;;;10.25;100.00
6030;BME280;3043;42.682;23.376;2023-04-21T00:20:14;94497.31;;;10.14;100.00
6030;BME280;3043;42.682;23.376;2023-04-21T00:22:40;94493.03;;;9.84;100.00
6030;BME280;3043;42.682;23.376;2023-04-21T00:25:06;94488.22;;;9.72;100.00
6030;BME280;3043;42.682;23.376;2023-04-21T00:27:31;94485.09;;;9.90;100.00
6030;BME280;3043;42.682;23.376;2023-04-21T00:29:57;94485.41;;;9.79;100.00
6030;BME280;3043;42.682;23.376;2023-04-21T00:32:22;94491.78;;;9.68;100.00
6030;BME280;3043;42.682;23.376;2023-04-21T00:34:47;94490.00;;;9.70;100.00
6030;BME280;3043;42.682;23.376;2023-04-21T00:37:13;94493.59;;;9.66;100.00
6030;BME280;3043;42.682;23.376;2023-04-21T00:39:38;94494.44;;;9.65;100.00
6030;BME280;3043;42.682;23.376;2023-04-21T00:42:04;94493.75;;;9.60;100.00
6030;BME280;3043;42.682;23.376;2023-04-21T00:44:29;94488.19;;;9.44;100.00
6030;BME280;3043;42.682;23.376;2023-04-21T00:46:55;94495.09;;;9.42;100.00
6030;BME280;3043;42.682;23.376;2023-04-21T00:49:21;94496.53;;;9.54;100.00
6030;BME280;3043;42.682;23.376;2023-04-21T00:51:49;94482.91;;;9.17;100.00
6030;BME280;3043;42.682;23.376;2023-04-21T00:54:16;94478.50;;;9.22;100.00
6030;BME280;3043;42.682;23.376;2023-04-21T00:56:42;94478.56;;;9.19;100.00
6030;BME280;3043;42.682;23.376;2023-04-21T00:59:08;94475.81;;;9.25;100.00
6030;BME280;3043;42.682;23.376;2023-04-21T01:01:34;94482.59;;;9.29;100.00
6030;BME280;3043;42.682;23.376;2023-04-21T01:04:02;94480.56;;;9.40;100.00
6030;BME280;3043;42.682;23.376;2023-04-21T01:06:31;94477.06;;;9.41;100.00
6030;BME280;3043;42.682;23.376;2023-04-21T01:08:58;94468.16;;;9.22;100.00
6030;BME280;3043;42.682;23.376;2023-04-21T01:11:24;94469.72;;;9.27;100.00
6030;BME280;3043;42.682;23.376;2023-04-21T01:13:52;94471.66;;;9.19;100.00
6030;BME280;3043;42.682;23.376;2023-04-21T01:16:21;94467.00;;;9.32;100.00
6030;BME280;3043;42.682;23.376;2023-04-21T01:18:48;94473.53;;;9.45;100.00
6030;BME280;3043;42.682;23.376;2023-04-21T01:21:15;94491.41;;;9.52;100.00
6030;BME280;3043;42.682;23.376;2023-04-21T01:23:41;94480.22;;;9.52;100.00
6030;BME280;3043;42.682;23.376;2023-04-21T01:26:08;94478.53;;;9.51;100.00
6030;BME280;3043;42.682;23.376;2023-04-21T01:28:33;94482.78;;;9.52;100.00
6030;BME280;3043;42.682;23.376;2023-04-21T01:30:59;94478.53;;;9.20;100.00
6030;BME280;3043;42.682;23.376;2023-04-21T01:33:25;94487.38;;;8.79;100.00
6030;BME280;3043;42.682;23.376;2023-04-21T01:35:50;94484.06;;;8.74;100.00
6030;BME280;3043;42.682;23.376;2023-04-21T01:38:16;94479.00;;;8.71;100.00
6030;BME280;3043;42.682;23.376;2023-04-21T01:40:47;94472.09;;;8.70;100.00
6030;BME280;3043;42.682;23.376;2023-04-21T01:43:13;94477.34;;;8.67;100.00
6030;BME280;3043;42.682;23.376;2023-04-21T01:45:40;94474.06;;;8.62;100.00
6030;BME280;3043;42.682;23.376;2023-04-21T01:48:06;94471.44;;;8.64;100.00
6030;BME280;3043;42.682;23.376;2023-04-21T01:50:31;94465.63;;;8.56;100.00
6030;BME280;3043;42.682;23.376;2023-04-21T01:52:57;94463.25;;;8.48;100.00
6030;BME280;3043;42.682;23.376;2023-04-21T01:55:23;94466.63;;;8.50;100.00
6030;BME280;3043;42.682;23.376;2023-04-21T01:57:49;94473.56;;;8.48;100.00
6030;BME280;3043;42.682;23.376;2023-04-21T02:00:15;94467.47;;;8.51;100.00
6030;BME280;3043;42.682;23.376;2023-04-21T02:02:40;94467.34;;;8.55;100.00
6030;BME280;3043;42.682;23.376;2023-04-21T02:05:06;94463.75;;;8.62;100.00
6030;BME280;3043;42.682;23.376;2023-04-21T02:07:32;94466.03;;;8.73;100.00
6030;BME280;3043;42.682;23.376;2023-04-21T02:09:57;94473.81;;;8.71;100.00
6030;BME280;3043;42.682;23.376;2023-04-21T02:12:22;94471.97;;;8.76;100.00
6030;BME280;3043;42.682;23.376;2023-04-21T02:14:48;94474.47;;;8.79;100.00
6030;BME280;3043;42.682;23.376;2023-04-21T02:17:13;94463.44;;;8.74;100.00
6030;BME280;3043;42.682;23.376;2023-04-21T02:19:39;94463.19;;;8.83;100.00
6030;BME280;3043;42.682;23.376;2023-04-21T02:22:05;94467.38;;;8.87;100.00
6030;BME280;3043;42.682;23.376;2023-04-21T02:24:32;94456.19;;;8.88;100.00
6030;BME280;3043;42.682;23.376;2023-04-21T02:26:58;94467.59;;;8.78;100.00
6030;BME280;3043;42.682;23.376;2023-04-21T02:29:23;94457.94;;;8.86;100.00
6030;BME280;3043;42.682;23.376;2023-04-21T02:31:49;94459.53;;;8.90;100.00
6030;BME280;3043;42.682;23.376;2023-04-21T02:34:14;94470.81;;;8.88;100.00
6030;BME280;3043;42.682;23.376;2023-04-21T02:36:40;94459.94;;;8.75;100.00
6030;BME280;3043;42.682;23.376;2023-04-21T02:39:05;94463.34;;;8.77;100.00
6030;BME280;3043;42.682;23.376;2023-04-21T02:41:31;94470.44;;;8.69;100.00
6030;BME280;3043;42.682;23.376;2023-04-21T02:43:56;94466.28;;;8.30;100.00
6030;BME280;3043;42.682;23.376;2023-04-21T02:46:22;94462.94;;;8.25;100.00
6030;BME280;3043;42.682;23.376;2023-04-21T02:48:47;94472.22;;;8.34;100.00
6030;BME280;3043;42.682;23.376;2023-04-21T02:51:13;94464.59;;;8.29;100.00
6030;BME280;3043;42.682;23.376;2023-04-21T02:53:40;94475.06;;;8.23;100.00
6030;BME280;3043;42.682;23.376;2023-04-21T02:56:09;94466.97;;;8.37;100.00
6030;BME280;3043;42.682;23.376;2023-04-21T02:58:35;94469.56;;;8.37;100.00
6030;BME280;3043;42.682;23.376;2023-04-21T03:01:01;94465.44;;;8.28;100.00
6030;BME280;3043;42.682;23.376;2023-04-21T03:03:28;94461.81;;;8.37;100.00
6030;BME280;3043;42.682;23.376;2023-04-21T03:06:00;94463.44;;;8.41;100.00
6030;BME280;3043;42.682;23.376;2023-04-21T03:08:26;94465.97;;;8.42;100.00
6030;BME280;3043;42.682;23.376;2023-04-21T03:10:52;94463.47;;;8.39;100.00
6030;BME280;3043;42.682;23.376;2023-04-21T03:13:17;94462.81;;;8.31;100.00
6030;BME280;3043;42.682;23.376;2023-04-21T03:15:43;94467.13;;;8.64;100.00
6030;BME280;3043;42.682;23.376;2023-04-21T03:18:09;94472.06;;;8.73;100.00
6030;BME280;3043;42.682;23.376;2023-04-21T03:20:35;94472.81;;;8.77;100.00
6030;BME280;3043;42.682;23.376;2023-04-21T03:23:00;94473.50;;;8.83;100.00
6030;BME280;3043;42.682;23.376;2023-04-21T03:25:25;94466.25;;;8.97;100.00
6030;BME280;3043;42.682;23.376;2023-04-21T03:27:54;94471.50;;;8.94;100.00
6030;BME280;3043;42.682;23.376;2023-04-21T03:30:21;94475.84;;;8.92;100.00
6030;BME280;3043;42.682;23.376;2023-04-21T03:32:47;94479.97;;;8.98;100.00
6030;BME280;3043;42.682;23.376;2023-04-21T03:35:12;94478.09;;;9.04;100.00
6030;BME280;3043;42.682;23.376;2023-04-21T03:37:38;94484.84;;;9.08;100.00
6030;BME280;3043;42.682;23.376;2023-04-21T03:40:06;94482.16;;;9.13;100.00
6030;BME280;3043;42.682;23.376;2023-04-21T03:42:33;94485.34;;;9.23;100.00
6030;BME280;3043;42.682;23.376;2023-04-21T03:45:03;94491.22;;;9.28;100.00
6030;BME280;3043;42.682;23.376;2023-04-21T03:47:29;94488.94;;;9.48;100.00
6030;BME280;3043;42.682;23.376;2023-04-21T03:49:55;94494.66;;;9.57;100.00
6030;BME280;3043;42.682;23.376;2023-04-21T03:52:20;94491.53;;;9.77;100.00
6030;BME280;3043;42.682;23.376;2023-04-21T03:54:45;94496.75;;;9.74;100.00
6030;BME280;3043;42.682;23.376;2023-04-21T03:57:11;94500.69;;;9.58;100.00
6030;BME280;3043;42.682;23.376;2023-04-21T03:59:36;94507.91;;;9.47;100.00
6030;BME280;3043;42.682;23.376;2023-04-21T04:02:02;94508.19;;;9.67;100.00
6030;BME280;3043;42.682;23.376;2023-04-21T04:04:27;94513.72;;;9.84;100.00
6030;BME280;3043;42.682;23.376;2023-04-21T04:06:53;94503.19;;;9.90;100.00
6030;BME280;3043;42.682;23.376;2023-04-21T04:09:18;94511.88;;;10.44;100.00
6030;BME280;3043;42.682;23.376;2023-04-21T04:11:44;94512.44;;;10.53;100.00
6030;BME280;3043;42.682;23.376;2023-04-21T04:14:09;94517.22;;;10.65;100.00
6030;BME280;3043;42.682;23.376;2023-04-21T04:16:34;94525.72;;;10.69;100.00
6030;BME280;3043;42.682;23.376;2023-04-21T04:19:01;94524.94;;;10.67;100.00
6030;BME280;3043;42.682;23.376;2023-04-21T04:21:28;94534.78;;;10.82;100.00
6030;BME280;3043;42.682;23.376;2023-04-21T04:23:54;94537.66;;;10.99;100.00
6030;BME280;3043;42.682;23.376;2023-04-21T04:26:19;94547.78;;;11.31;100.00
6030;BME280;3043;42.682;23.376;2023-04-21T04:28:46;94547.19;;;11.23;100.00
6030;BME280;3043;42.682;23.376;2023-04-21T04:31:12;94544.34;;;11.31;100.00
6030;BME280;3043;42.682;23.376;2023-04-21T04:33:42;94549.09;;;11.18;100.00
6030;BME280;3043;42.682;23.376;2023-04-21T04:36:08;94548.88;;;11.00;100.00
6030;BME280;3043;42.682;23.376;2023-04-21T04:38:36;94547.13;;;10.74;100.00
6030;BME280;3043;42.682;23.376;2023-04-21T04:41:02;94550.81;;;10.39;100.00
6030;BME280;3043;42.682;23.376;2023-04-21T04:43:29;94552.88;;;10.56;100.00
6030;BME280;3043;42.682;23.376;2023-04-21T04:45:58;94557.31;;;10.52;100.00
6030;BME280;3043;42.682;23.376;2023-04-21T04:48:23;94556.47;;;10.52;100.00
6030;BME280;3043;42.682;23.376;2023-04-21T04:50:49;94558.44;;;10.44;100.00
6030;BME280;3043;42.682;23.376;2023-04-21T04:53:14;94560.16;;;10.45;100.00
6030;BME280;3043;42.682;23.376;2023-04-21T04:55:40;94564.75;;;10.63;100.00
6030;BME280;3043;42.682;23.376;2023-04-21T04:58:05;94563.41;;;10.50;100.00
6030;BME280;3043;42.682;23.376;2023-04-21T05:00:31;94559.06;;;10.52;100.00
6030;BME280;3043;42.682;23.376;2023-04-21T05:02:56;94554.50;;;10.60;100.00
6030;BME280;3043;42.682;23.376;2023-04-21T05:05:22;94548.53;;;10.84;100.00
6030;BME280;3043;42.682;23.376;2023-04-21T05:07:49;94556.09;;;11.16;100.00
6030;BME280;3043;42.682;23.376;2023-04-21T05:10:14;94563.28;;;11.57;100.00
6030;BME280;3043;42.682;23.376;2023-04-21T05:12:39;94563.88;;;11.88;100.00
6030;BME280;3043;42.682;23.376;2023-04-21T05:15:05;94571.00;;;12.29;100.00
6030;BME280;3043;42.682;23.376;2023-04-21T05:17:32;94574.66;;;12.47;100.00
6030;BME280;3043;42.682;23.376;2023-04-21T05:19:57;94574.75;;;12.66;100.00
6030;BME280;3043;42.682;23.376;2023-04-21T05:22:23;94577.31;;;12.89;100.00
6030;BME280;3043;42.682;23.376;2023-04-21T05:24:48;94576.59;;;13.07;100.00
6030;BME280;3043;42.682;23.376;2023-04-21T05:27:14;94586.03;;;13.29;100.00
6030;BME280;3043;42.682;23.376;2023-04-21T05:29:39;94574.25;;;13.62;100.00
6030;BME280;3043;42.682;23.376;2023-04-21T05:32:05;94571.53;;;13.65;100.00
6030;BME280;3043;42.682;23.376;2023-04-21T05:34:30;94574.56;;;13.55;100.00
6030;BME280;3043;42.682;23.376;2023-04-21T05:36:56;94569.28;;;14.35;100.00
6030;BME280;3043;42.682;23.376;2023-04-21T05:39:21;94574.47;;;15.43;100.00
6030;BME280;3043;42.682;23.376;2023-04-21T05:41:47;94583.69;;;16.65;100.00
6030;BME280;3043;42.682;23.376;2023-04-21T05:44:12;94573.34;;;17.99;100.00
6030;BME280;3043;42.682;23.376;2023-04-21T05:46:37;94579.88;;;19.45;99.72
6030;BME280;3043;42.682;23.376;2023-04-21T05:49:03;94582.78;;;20.69;85.00
6030;BME280;3043;42.682;23.376;2023-04-21T05:51:28;94583.69;;;21.29;72.82
6030;BME280;3043;42.682;23.376;2023-04-21T05:53:54;94578.25;;;22.25;68.30
6030;BME280;3043;42.682;23.376;2023-04-21T05:56:19;94575.31;;;23.07;60.23
6030;BME280;3043;42.682;23.376;2023-04-21T05:58:45;94581.44;;;23.61;57.98
6030;BME280;3043;42.682;23.376;2023-04-21T06:01:10;94580.13;;;22.68;56.70
6030;BME280;3043;42.682;23.376;2023-04-21T06:03:37;94579.16;;;23.03;57.68
6030;BME280;3043;42.682;23.376;2023-04-21T06:06:03;94576.53;;;22.92;55.08
6030;BME280;3043;42.682;23.376;2023-04-21T06:08:30;94568.84;;;22.55;57.52
6030;BME280;3043;42.682;23.376;2023-04-21T06:10:55;94565.59;;;22.85;55.65
6030;BME280;3043;42.682;23.376;2023-04-21T06:13:21;94570.00;;;22.40;56.90
6030;BME280;3043;42.682;23.376;2023-04-21T06:15:46;94570.53;;;22.56;57.21
6030;BME280;3043;42.682;23.376;2023-04-21T06:18:11;94571.19;;;22.36;57.66
6030;BME280;3043;42.682;23.376;2023-04-21T06:20:37;94568.63;;;22.58;56.29
6030;BME280;3043;42.682;23.376;2023-04-21T06:23:02;94564.75;;;22.62;56.31
6030;BME280;3043;42.682;23.376;2023-04-21T06:25:28;94575.06;;;22.65;54.67
6030;BME280;3043;42.682;23.376;2023-04-21T06:27:54;94568.44;;;21.92;57.58
6030;BME280;3043;42.682;23.376;2023-04-21T06:30:20;94569.88;;;22.31;56.75
6030;BME280;3043;42.682;23.376;2023-04-21T06:32:45;94570.22;;;20.97;62.80
6030;BME280;3043;42.682;23.376;2023-04-21T06:35:12;94571.38;;;21.30;62.72
6030;BME280;3043;42.682;23.376;2023-04-21T06:37:39;94570.91;;;21.12;64.80
6030;BME280;3043;42.682;23.376;2023-04-21T06:40:06;94573.63;;;21.23;64.11
6030;BME280;3043;42.682;23.376;2023-04-21T06:42:31;94568.78;;;22.22;59.99
6030;BME280;3043;42.682;23.376;2023-04-21T06:44:57;94558.97;;;22.46;59.38
6030;BME280;3043;42.682;23.376;2023-04-21T06:47:22;94575.22;;;22.75;56.73
6030;BME280;3043;42.682;23.376;2023-04-21T06:49:48;94563.94;;;23.60;56.82
6030;BME280;3043;42.682;23.376;2023-04-21T06:52:16;94555.97;;;24.43;51.88
6030;BME280;3043;42.682;23.376;2023-04-21T06:54:41;94561.50;;;24.82;50.41
6030;BME280;3043;42.682;23.376;2023-04-21T06:57:06;94562.19;;;24.63;49.58
6030;BME280;3043;42.682;23.376;2023-04-21T06:59:32;94564.38;;;24.58;50.35
6030;BME280;3043;42.682;23.376;2023-04-21T07:01:59;94556.50;;;24.88;50.19
6030;BME280;3043;42.682;23.376;2023-04-21T07:04:24;94556.19;;;25.70;46.79
6030;BME280;3043;42.682;23.376;2023-04-21T07:06:54;94555.38;;;24.40;49.47
6030;BME280;3043;42.682;23.376;2023-04-21T07:09:20;94548.41;;;24.39;50.44
6030;BME280;3043;42.682;23.376;2023-04-21T07:11:45;94553.69;;;24.80;49.72
6030;BME280;3043;42.682;23.376;2023-04-21T07:14:11;94554.31;;;25.42;47.54
6030;BME280;3043;42.682;23.376;2023-04-21T07:16:36;94556.16;;;24.72;47.94
6030;BME280;3043;42.682;23.376;2023-04-21T07:19:02;94551.78;;;23.68;50.96
6030;BME280;3043;42.682;23.376;2023-04-21T07:21:27;94551.69;;;23.59;51.83
6030;BME280;3043;42.682;23.376;2023-04-21T07:23:54;94551.09;;;23.87;50.06
6030;BME280;3043;42.682;23.376;2023-04-21T07:26:20;94540.00;;;22.19;54.62
6030;BME280;3043;42.682;23.376;2023-04-21T07:28:45;94541.28;;;20.72;60.85
6030;BME280;3043;42.682;23.376;2023-04-21T07:31:11;94546.13;;;20.78;63.45
6030;BME280;3043;42.682;23.376;2023-04-21T07:33:36;94555.06;;;21.25;65.37
6030;BME280;3043;42.682;23.376;2023-04-21T07:36:02;94533.13;;;21.60;62.68
6030;BME280;3043;42.682;23.376;2023-04-21T07:38:27;94539.78;;;21.53;61.83
6030;BME280;3043;42.682;23.376;2023-04-21T07:40:52;94542.94;;;22.83;58.06
6030;BME280;3043;42.682;23.376;2023-04-21T07:43:18;94533.72;;;23.42;55.23
6030;BME280;3043;42.682;23.376;2023-04-21T07:45:44;94538.97;;;24.46;51.72
6030;BME280;3043;42.682;23.376;2023-04-21T07:48:10;94551.88;;;25.30;50.76
6030;BME280;3043;42.682;23.376;2023-04-21T07:50:35;94556.69;;;24.66;49.12
6030;BME280;3043;42.682;23.376;2023-04-21T07:53:01;94551.88;;;24.60;49.20
6030;BME280;3043;42.682;23.376;2023-04-21T07:55:27;94548.47;;;22.79;52.04
6030;BME280;3043;42.682;23.376;2023-04-21T07:57:53;94536.44;;;24.35;49.48
6030;BME280;3043;42.682;23.376;2023-04-21T08:00:19;94551.47;;;24.85;48.07
6030;BME280;3043;42.682;23.376;2023-04-21T08:02:45;94547.09;;;25.14;47.81
6030;BME280;3043;42.682;23.376;2023-04-21T08:05:10;94551.41;;;26.41;44.47
6030;BME280;3043;42.682;23.376;2023-04-21T08:07:36;94549.34;;;25.96;43.51
6030;BME280;3043;42.682;23.376;2023-04-21T08:10:01;94554.09;;;25.15;45.59
6030;BME280;3043;42.682;23.376;2023-04-21T08:12:27;94555.66;;;24.88;47.97
6030;BME280;3043;42.682;23.376;2023-04-21T08:14:52;94552.59;;;23.69;49.61
6030;BME280;3043;42.682;23.376;2023-04-21T08:17:18;94541.91;;;22.17;53.95
6030;BME280;3043;42.682;23.376;2023-04-21T08:19:43;94545.63;;;21.22;58.66
6030;BME280;3043;42.682;23.376;2023-04-21T08:22:09;94536.00;;;21.68;60.59
6030;BME280;3043;42.682;23.376;2023-04-21T08:24:34;94543.25;;;21.30;61.29
6030;BME280;3043;42.682;23.376;2023-04-21T08:27:00;94550.72;;;21.00;64.42
6030;BME280;3043;42.682;23.376;2023-04-21T08:29:27;94541.66;;;21.04;68.70
6030;BME280;3043;42.682;23.376;2023-04-21T08:31:52;94531.03;;;21.76;60.42
6030;BME280;3043;42.682;23.376;2023-04-21T08:34:18;94542.53;;;22.43;58.71
6030;BME280;3043;42.682;23.376;2023-04-21T08:36:44;94543.19;;;22.68;54.64
6030;BME280;3043;42.682;23.376;2023-04-21T08:39:11;94540.06;;;22.86;53.94
6030;BME280;3043;42.682;23.376;2023-04-21T08:41:38;94526.47;;;22.46;55.57
6030;BME280;3043;42.682;23.376;2023-04-21T08:44:08;94530.00;;;21.90;55.69
6030;BME280;3043;42.682;23.376;2023-04-21T08:46:34;94542.31;;;20.95;60.12
6030;BME280;3043;42.682;23.376;2023-04-21T08:49:01;94529.81;;;20.25;63.42
6030;BME280;3043;42.682;23.376;2023-04-21T08:51:27;94525.88;;;21.04;61.52
6030;BME280;3043;42.682;23.376;2023-04-21T08:53:56;94528.78;;;20.76;63.09
6030;BME280;3043;42.682;23.376;2023-04-21T08:56:23;94518.41;;;21.45;61.38
6030;BME280;3043;42.682;23.376;2023-04-21T08:58:50;94511.06;;;22.52;56.96
6030;BME280;3043;42.682;23.376;2023-04-21T09:01:15;94524.66;;;23.35;52.88
6030;BME280;3043;42.682;23.376;2023-04-21T09:03:41;94519.53;;;23.54;52.88
6030;BME280;3043;42.682;23.376;2023-04-21T09:06:08;94522.81;;;23.35;50.81
6030;BME280;3043;42.682;23.376;2023-04-21T09:08:36;94518.63;;;23.96;49.95
6030;BME280;3043;42.682;23.376;2023-04-21T09:11:02;94516.94;;;24.36;49.47
6030;BME280;3043;42.682;23.376;2023-04-21T09:13:35;94509.09;;;25.25;45.75
6030;BME280;3043;42.682;23.376;2023-04-21T09:16:14;94504.09;;;23.90;47.38
6030;BME280;3043;42.682;23.376;2023-04-21T09:18:40;94504.81;;;22.64;51.06
6030;BME280;3043;42.682;23.376;2023-04-21T09:21:14;94507.22;;;22.67;51.29
6030;BME280;3043;42.682;23.376;2023-04-21T09:26:06;94502.38;;;21.48;56.58
6030;BME280;3043;42.682;23.376;2023-04-21T09:28:31;94504.88;;;20.79;59.64
6030;BME280;3043;42.682;23.376;2023-04-21T09:30:57;94505.41;;;20.84;57.74
6030;BME280;3043;42.682;23.376;2023-04-21T09:33:22;94493.19;;;20.47;59.63
6030;BME280;3043;42.682;23.376;2023-04-21T09:35:48;94508.13;;;20.09;64.33
6030;BME280;3043;42.682;23.376;2023-04-21T09:38:14;94497.41;;;20.37;63.34
6030;BME280;3043;42.682;23.376;2023-04-21T09:40:39;94494.22;;;20.57;58.79
6030;BME280;3043;42.682;23.376;2023-04-21T09:43:05;94487.09;;;21.19;55.97
6030;BME280;3043;42.682;23.376;2023-04-21T09:45:31;94475.06;;;22.29;54.67
6030;BME280;3043;42.682;23.376;2023-04-21T09:47:59;94484.41;;;22.77;49.33
6030;BME280;3043;42.682;23.376;2023-04-21T09:50:27;94489.16;;;23.06;48.17
6030;BME280;3043;42.682;23.376;2023-04-21T09:52:54;94483.72;;;22.64;49.99
6030;BME280;3043;42.682;23.376;2023-04-21T09:55:29;94482.97;;;22.73;49.61
6030;BME280;3043;42.682;23.376;2023-04-21T09:57:59;94481.03;;;22.09;52.19
6030;BME280;3043;42.682;23.376;2023-04-21T10:00:26;94473.69;;;21.80;54.23
6030;BME280;3043;42.682;23.376;2023-04-21T10:02:57;94482.91;;;21.85;53.49
6030;BME280;3043;42.682;23.376;2023-04-21T10:05:25;94491.44;;;21.31;55.85
6030;BME280;3043;42.682;23.376;2023-04-21T10:07:51;94475.75;;;20.21;60.87
6030;BME280;3043;42.682;23.376;2023-04-21T10:12:47;94477.84;;;19.91;60.10
6030;BME280;3043;42.682;23.376;2023-04-21T10:15:38;94471.88;;;19.24;64.31
6030;BME280;3043;42.682;23.376;2023-04-21T10:18:18;94464.38;;;20.33;63.15
6030;BME280;3043;42.682;23.376;2023-04-21T10:23:43;94474.09;;;20.92;61.19
6030;BME280;3043;42.682;23.376;2023-04-21T10:28:40;94474.44;;;20.51;61.14
6030;BME280;3043;42.682;23.376;2023-04-21T10:36:50;94460.28;;;21.59;55.92
6030;BME280;3043;42.682;23.376;2023-04-21T10:44:41;94457.91;;;20.98;60.60
6030;BME280;3043;42.682;23.376;2023-04-21T10:47:06;94453.22;;;20.42;63.89
6030;BME280;3043;42.682;23.376;2023-04-21T10:49:37;94456.53;;;20.69;65.38
6030;BME280;3043;42.682;23.376;2023-04-21T10:52:04;94452.84;;;20.95;62.90
6030;BME280;3043;42.682;23.376;2023-04-21T10:57:18;94455.97;;;21.47;57.33
6030;BME280;3043;42.682;23.376;2023-04-21T10:59:44;94461.25;;;22.04;55.20
6030;BME280;3043;42.682;23.376;2023-04-21T11:02:11;94463.78;;;22.49;51.92
6030;BME280;3043;42.682;23.376;2023-04-21T11:04:37;94451.50;;;22.93;48.88
6030;BME280;3043;42.682;23.376;2023-04-21T11:07:06;94455.78;;;23.05;48.45
6030;BME280;3043;42.682;23.376;2023-04-21T11:09:32;94458.50;;;22.71;51.29
6030;BME280;3043;42.682;23.376;2023-04-21T11:12:03;94444.00;;;22.44;54.35
6030;BME280;3043;42.682;23.376;2023-04-21T11:14:31;94438.75;;;21.65;59.11
6030;BME280;3043;42.682;23.376;2023-04-21T11:16:57;94456.81;;;21.13;59.77
6030;BME280;3043;42.682;23.376;2023-04-21T11:19:23;94456.88;;;20.64;62.49
6030;BME280;3043;42.682;23.376;2023-04-21T11:21:52;94445.91;;;19.97;69.70
6030;BME280;3043;42.682;23.376;2023-04-21T11:24:20;94449.81;;;19.91;74.00
6030;BME280;3043;42.682;23.376;2023-04-21T11:26:45;94458.69;;;20.39;74.69
6030;BME280;3043;42.682;23.376;2023-04-21T11:29:11;94451.53;;;20.53;71.76
6030;BME280;3043;42.682;23.376;2023-04-21T11:31:38;94445.38;;;20.65;73.01
6030;BME280;3043;42.682;23.376;2023-04-21T11:34:05;94452.06;;;21.29;71.78
6030;BME280;3043;42.682;23.376;2023-04-21T11:36:43;94441.00;;;21.93;65.23
6030;BME280;3043;42.682;23.376;2023-04-21T11:39:12;94457.53;;;22.39;61.22
6030;BME280;3043;42.682;23.376;2023-04-21T11:41:39;94462.59;;;22.20;59.91
6030;BME280;3043;42.682;23.376;2023-04-21T11:44:08;94464.44;;;21.74;61.39
6030;BME280;3043;42.682;23.376;2023-04-21T11:46:34;94466.09;;;19.84;72.13
6030;BME280;3043;42.682;23.376;2023-04-21T11:49:04;94467.13;;;19.94;75.39
6030;BME280;3043;42.682;23.376;2023-04-21T11:51:34;94464.59;;;20.30;76.91
6030;BME280;3043;42.682;23.376;2023-04-21T11:54:00;94459.59;;;20.63;74.51
6030;BME280;3043;42.682;23.376;2023-04-21T11:56:25;94446.00;;;20.69;69.00
6030;BME280;3043;42.682;23.376;2023-04-21T11:58:51;94457.69;;;20.04;66.77
6030;BME280;3043;42.682;23.376;2023-04-21T12:01:17;94450.97;;;20.25;65.09
6030;BME280;3043;42.682;23.376;2023-04-21T12:03:51;94449.91;;;20.15;65.43
6030;BME280;3043;42.682;23.376;2023-04-21T12:06:21;94456.59;;;20.31;65.47
6030;BME280;3043;42.682;23.376;2023-04-21T12:08:46;94444.28;;;20.44;62.42
6030;BME280;3043;42.682;23.376;2023-04-21T12:11:15;94444.72;;;20.74;59.80
6030;BME280;3043;42.682;23.376;2023-04-21T12:13:41;94449.94;;;20.87;56.51
6030;BME280;3043;42.682;23.376;2023-04-21T12:16:06;94446.97;;;21.15;56.05
6030;BME280;3043;42.682;23.376;2023-04-21T12:18:32;94454.13;;;20.89;55.54
6030;BME280;3043;42.682;23.376;2023-04-21T12:21:00;94460.56;;;20.85;53.93
6030;BME280;3043;42.682;23.376;2023-04-21T12:23:27;94458.53;;;20.89;53.42
6030;BME280;3043;42.682;23.376;2023-04-21T12:25:53;94460.91;;;20.81;52.54
6030;BME280;3043;42.682;23.376;2023-04-21T12:28:18;94459.84;;;20.83;54.34
6030;BME280;3043;42.682;23.376;2023-04-21T12:30:44;94466.38;;;20.78;53.31
6030;BME280;3043;42.682;23.376;2023-04-21T12:33:10;94456.38;;;20.47;54.65
6030;BME280;3043;42.682;23.376;2023-04-21T12:35:35;94458.25;;;20.45;55.80
6030;BME280;3043;42.682;23.376;2023-04-21T12:38:01;94465.34;;;19.82;58.01
6030;BME280;3043;42.682;23.376;2023-04-21T12:40:26;94460.63;;;19.87;59.40
6030;BME280;3043;42.682;23.376;2023-04-21T12:42:52;94456.22;;;20.00;59.76
6030;BME280;3043;42.682;23.376;2023-04-21T12:45:17;94452.84;;;19.98;60.35
6030;BME280;3043;42.682;23.376;2023-04-21T12:47:43;94446.13;;;19.94;61.37
6030;BME280;3043;42.682;23.376;2023-04-21T12:50:08;94453.47;;;19.89;62.31
6030;BME280;3043;42.682;23.376;2023-04-21T12:52:35;94447.47;;;20.12;62.83
6030;BME280;3043;42.682;23.376;2023-04-21T12:55:01;94447.72;;;20.21;59.33
6030;BME280;3043;42.682;23.376;2023-04-21T12:57:27;94449.47;;;20.21;56.98
6030;BME280;3043;42.682;23.376;2023-04-21T12:59:53;94460.41;;;20.40;57.26
6030;BME280;3043;42.682;23.376;2023-04-21T13:02:20;94450.75;;;20.28;57.97
6030;BME280;3043;42.682;23.376;2023-04-21T13:04:45;94454.75;;;20.21;55.96
6030;BME280;3043;42.682;23.376;2023-04-21T13:07:10;94445.28;;;20.06;56.91
6030;BME280;3043;42.682;23.376;2023-04-21T13:09:36;94451.91;;;19.99;55.92
6030;BME280;3043;42.682;23.376;2023-04-21T13:12:02;94445.06;;;19.96;55.72
6030;BME280;3043;42.682;23.376;2023-04-21T13:14:28;94447.59;;;19.73;56.50
6030;BME280;3043;42.682;23.376;2023-04-21T13:16:54;94447.97;;;19.41;58.47
6030;BME280;3043;42.682;23.376;2023-04-21T13:19:20;94439.41;;;19.52;60.48
6030;BME280;3043;42.682;23.376;2023-04-21T13:21:46;94438.88;;;19.47;61.04
6030;BME280;3043;42.682;23.376;2023-04-21T13:24:12;94450.88;;;19.24;62.12
6030;BME280;3043;42.682;23.376;2023-04-21T13:26:37;94445.75;;;18.96;64.93
6030;BME280;3043;42.682;23.376;2023-04-21T13:29:03;94438.97;;;19.46;63.09